Time;durP1;ratioP1;P1;durP2;ratioP2;P2;SDS_P1;SDS_P2;PMS_P1;PMS_P2;Temp;Humidity;BMP_temperature;BMP_pressure;BME280_temperature;BME280_humidity;BME280_pressure;Samples;Min_cycle;Max_cycle;Signal;HPM_P1;HPM_P2
2022/04/15 00:00:56;;;;;;;17.82;11.30;;;;;;;12.25;66.80;100504.20;2198031;79;21035;-73
2022/04/15 00:03:58;;;;;;;17.00;10.32;;;;;;;12.23;67.13;100509.69;2196293;79;21536;-73
2022/04/15 00:06:59;;;;;;;16.48;10.88;;;;;;;12.20;67.29;100502.55;2187619;79;21072;-73
2022/04/15 00:10:01;;;;;;;18.48;12.10;;;;;;;12.18;67.63;100497.88;2194322;79;21061;-73
2022/04/15 00:13:06;;;;;;;19.05;11.25;;;;;;;12.15;67.89;100502.20;2196098;79;20966;-73
2022/04/15 00:16:07;;;;;;;17.48;11.45;;;;;;;12.12;68.29;100508.69;2199823;79;21076;-73
2022/04/15 00:19:09;;;;;;;17.05;10.72;;;;;;;12.10;68.30;100499.53;2193657;79;21012;-73
2022/04/15 00:22:11;;;;;;;17.42;11.70;;;;;;;12.09;68.39;100496.55;2193841;79;21504;-73
2022/04/15 00:25:13;;;;;;;17.50;10.80;;;;;;;12.10;68.49;100499.53;2192521;79;21037;-73
2022/04/15 00:28:15;;;;;;;17.02;11.65;;;;;;;12.11;68.59;100507.05;2198128;79;20994;-73
2022/04/15 00:31:16;;;;;;;16.07;11.95;;;;;;;12.05;68.64;100495.24;2197968;79;21590;-73
2022/04/15 00:34:17;;;;;;;18.32;11.75;;;;;;;12.01;68.87;100500.55;2190003;79;21583;-73
2022/04/15 00:37:19;;;;;;;17.12;11.55;;;;;;;12.00;69.03;100502.89;2206896;78;21130;-72
2022/04/15 00:40:20;;;;;;;15.50;11.12;;;;;;;11.96;69.11;100502.05;2221714;78;21040;-73
2022/04/15 00:43:22;;;;;;;14.15;11.03;;;;;;;11.95;69.26;100489.25;2224257;78;21085;-73
2022/04/15 00:46:23;;;;;;;21.07;12.10;;;;;;;11.94;69.27;100494.25;2216281;78;21078;-73
2022/04/15 00:49:24;;;;;;;17.12;11.95;;;;;;;11.96;69.50;100503.38;2206225;78;21319;-73
2022/04/15 00:52:32;;;;;;;15.72;11.35;;;;;;;11.94;69.52;100513.34;2216236;78;21530;-73
2022/04/15 00:55:34;;;;;;;12.88;10.13;;;;;;;11.91;69.68;100505.69;2221948;78;21071;-72
2022/04/15 00:58:39;;;;;;;17.65;10.90;;;;;;;11.80;69.89;100508.17;2214217;78;21349;-73
2022/04/15 01:01:43;;;;;;;13.65;9.33;;;;;;;11.79;70.22;100515.80;2218650;78;21858;-73
2022/04/15 01:04:44;;;;;;;13.80;9.00;;;;;;;11.77;70.39;100515.13;2218381;78;21030;-72
2022/04/15 01:07:49;;;;;;;12.55;8.83;;;;;;;11.72;70.44;100511.65;2215377;78;21020;-73
2022/04/15 01:10:55;;;;;;;12.68;8.03;;;;;;;11.70;70.70;100520.27;2215366;78;21003;-73
2022/04/15 01:14:00;;;;;;;11.40;8.03;;;;;;;11.64;70.96;100516.45;2219870;78;21051;-72
2022/04/15 01:17:02;;;;;;;12.23;8.28;;;;;;;11.61;70.94;100519.94;2213473;78;21281;-72
2022/04/15 01:20:07;;;;;;;11.80;7.28;;;;;;;11.49;71.37;100495.51;2217159;78;21019;-73
2022/04/15 01:23:11;;;;;;;10.30;7.50;;;;;;;11.49;71.75;100506.14;2213194;78;21615;-73
2022/04/15 01:26:18;;;;;;;10.95;7.80;;;;;;;11.48;71.59;100510.27;2215797;78;20997;-73
2022/04/15 01:29:20;;;;;;;9.73;7.03;;;;;;;11.55;71.80;100533.88;2211967;78;20994;-72
2022/04/15 01:32:21;;;;;;;10.95;8.63;;;;;;;11.48;72.12;100524.38;2211440;78;21040;-72
2022/04/15 01:35:22;;;;;;;13.08;8.50;;;;;;;11.46;72.62;100527.72;2224415;78;21024;-73
2022/04/15 01:38:24;;;;;;;10.85;8.90;;;;;;;11.29;72.94;100488.33;2209064;78;21837;-73
2022/04/15 01:41:26;;;;;;;11.12;8.25;;;;;;;11.38;73.12;100512.58;2210568;79;21089;-73
2022/04/15 01:44:27;;;;;;;9.58;7.75;;;;;;;11.30;74.05;100508.58;2205778;79;21330;-72
2022/04/15 01:47:28;;;;;;;10.93;8.35;;;;;;;11.24;74.05;100511.87;2193143;79;21004;-73
2022/04/15 01:50:30;;;;;;;11.43;9.00;;;;;;;11.22;74.25;100513.86;2208623;78;20965;-73
2022/04/15 01:53:31;;;;;;;12.70;9.28;;;;;;;11.19;74.46;100504.89;2203128;78;21145;-73
2022/04/15 01:56:33;;;;;;;12.03;8.80;;;;;;;11.19;74.97;100503.56;2201740;78;21029;-73
2022/04/15 01:59:34;;;;;;;10.25;8.15;;;;;;;11.17;74.94;100505.03;2202443;79;20996;-73
2022/04/15 02:02:35;;;;;;;9.88;8.05;;;;;;;11.17;75.26;100516.16;2203046;78;21032;-73
2022/04/15 02:05:37;;;;;;;12.25;7.60;;;;;;;11.15;75.55;100517.66;2199733;79;21570;-73
2022/04/15 02:08:38;;;;;;;11.88;8.18;;;;;;;11.14;75.82;100523.12;2202265;79;21058;-73
2022/04/15 02:11:39;;;;;;;12.18;8.10;;;;;;;11.11;75.80;100520.29;2207876;79;20937;-72
2022/04/15 02:14:41;;;;;;;9.40;7.30;;;;;;;11.12;75.90;100510.49;2204640;79;22223;-73
2022/04/15 02:17:42;;;;;;;9.75;7.80;;;;;;;11.12;76.27;100520.64;2204580;79;20994;-72
2022/04/15 02:20:43;;;;;;;11.40;7.80;;;;;;;11.11;76.33;100516.31;2205489;79;21019;-73
2022/04/15 02:23:45;;;;;;;9.45;6.80;;;;;;;11.10;76.39;100521.30;2203568;78;21046;-73
2022/04/15 02:26:46;;;;;;;13.08;8.53;;;;;;;11.10;76.58;100522.63;2211005;78;21039;-73
2022/04/15 02:29:47;;;;;;;11.15;8.08;;;;;;;11.09;76.60;100526.25;2207879;78;21007;-72
2022/04/15 02:32:49;;;;;;;11.18;7.80;;;;;;;11.09;76.66;100513.47;2198592;79;20961;-72
2022/04/15 02:35:50;;;;;;;8.68;6.95;;;;;;;11.09;77.05;100522.27;2201561;78;21526;-73
2022/04/15 02:38:52;;;;;;;9.13;7.37;;;;;;;11.07;77.05;100514.98;2198700;79;21126;-73
2022/04/15 02:41:56;;;;;;;7.92;6.83;;;;;;;11.03;77.44;100506.98;2211725;78;20972;-72
2022/04/15 02:44:57;;;;;;;9.88;8.03;;;;;;;11.01;77.27;100503.67;2210277;78;21009;-73
2022/04/15 02:47:59;;;;;;;9.95;7.10;;;;;;;11.00;77.46;100504.65;2201850;79;22197;-73
2022/04/15 02:51:02;;;;;;;12.05;7.90;;;;;;;10.98;77.49;100499.98;2208728;79;21317;-73
2022/04/15 02:54:03;;;;;;;10.15;7.22;;;;;;;10.97;77.60;100499.16;2207146;79;20984;-73
2022/04/15 02:57:05;;;;;;;10.75;8.10;;;;;;;10.94;77.85;100490.19;2204125;78;21072;-73
2022/04/15 03:00:08;;;;;;;10.40;7.17;;;;;;;10.94;77.70;100492.84;2203255;79;21007;-73
2022/04/15 03:03:09;;;;;;;9.10;7.83;;;;;;;10.97;77.75;100484.55;2209931;79;21092;-73
2022/04/15 03:06:10;;;;;;;8.90;7.70;;;;;;;10.97;77.67;100477.91;2207547;78;21022;-72
2022/04/15 03:09:12;;;;;;;13.28;7.97;;;;;;;10.97;77.66;100481.07;2205011;79;20992;-72
2022/04/15 03:12:13;;;;;;;8.93;7.53;;;;;;;10.98;77.67;100474.29;2204015;78;21621;-72
2022/04/15 03:15:15;;;;;;;9.35;7.78;;;;;;;10.99;77.72;100483.91;2203927;78;21085;-73
2022/04/15 03:18:16;;;;;;;9.40;7.95;;;;;;;10.97;77.73;100489.86;2202785;78;21007;-73
2022/04/15 03:21:17;;;;;;;8.65;7.72;;;;;;;10.95;77.84;100486.56;2208449;78;20986;-72
2022/04/15 03:24:21;;;;;;;9.53;7.03;;;;;;;10.93;77.88;100484.55;2210125;78;20952;-73
2022/04/15 03:27:22;;;;;;;9.58;8.30;;;;;;;10.92;77.93;100491.34;2212112;77;21033;-72
2022/04/15 03:30:23;;;;;;;12.98;8.35;;;;;;;10.91;77.93;100491.84;2205902;79;21358;-72
2022/04/15 03:33:25;;;;;;;9.38;7.67;;;;;;;10.87;77.95;100490.50;2202171;79;21792;-73
2022/04/15 03:36:26;;;;;;;8.83;7.92;;;;;;;10.82;77.87;100492.80;2212085;79;21035;-72
2022/04/15 03:39:28;;;;;;;11.68;9.20;;;;;;;10.75;77.82;100498.39;2204959;78;21037;-73
2022/04/15 03:42:29;;;;;;;9.18;8.18;;;;;;;10.72;77.92;100496.06;2205818;79;21035;-73
2022/04/15 03:45:31;;;;;;;13.05;8.38;;;;;;;10.71;77.98;100501.87;2209544;78;21028;-72
2022/04/15 03:48:33;;;;;;;10.75;8.13;;;;;;;10.68;77.87;100498.70;2209735;78;21054;-73
2022/04/15 03:51:34;;;;;;;9.48;8.50;;;;;;;10.65;77.91;100501.18;2202063;79;20997;-73
2022/04/15 03:54:36;;;;;;;10.15;8.70;;;;;;;10.61;77.95;100500.31;2206014;79;21066;-73
2022/04/15 03:57:38;;;;;;;12.28;8.93;;;;;;;10.57;78.02;100499.80;2212376;79;20990;-73
2022/04/15 04:00:39;;;;;;;10.78;9.68;;;;;;;10.55;78.40;100497.80;2204481;78;21043;-72
2022/04/15 04:03:43;;;;;;;10.98;9.40;;;;;;;10.52;78.53;100505.57;2210118;78;21004;-73
2022/04/15 04:06:44;;;;;;;11.30;9.60;;;;;;;10.49;78.71;100505.89;2213567;79;20978;-72
2022/04/15 04:09:46;;;;;;;15.10;10.95;;;;;;;10.50;78.91;100509.37;2189509;79;22889;-73
2022/04/15 04:12:51;;;;;;;12.15;10.60;;;;;;;10.50;79.07;100505.39;2202974;79;21096;-72
2022/04/15 04:15:52;;;;;;;12.45;11.15;;;;;;;10.48;79.20;100507.39;2210657;78;20996;-73
2022/04/15 04:18:54;;;;;;;13.78;12.33;;;;;;;10.50;79.43;100501.41;2210437;79;21576;-72
2022/04/15 04:21:55;;;;;;;15.58;12.23;;;;;;;10.50;79.62;100506.71;2205030;78;21646;-72
2022/04/15 04:24:57;;;;;;;17.00;12.90;;;;;;;10.50;79.69;100501.41;2202327;79;21017;-73
2022/04/15 04:27:58;;;;;;;15.63;12.80;;;;;;;10.52;79.72;100497.61;2201076;79;21051;-71
2022/04/15 04:30:59;;;;;;;14.18;12.68;;;;;;;10.54;79.78;100504.93;2211690;79;21443;-73
2022/04/15 04:34:01;;;;;;;14.87;13.20;;;;;;;10.55;79.77;100501.77;2214774;78;21004;-72
2022/04/15 04:37:02;;;;;;;16.48;12.82;;;;;;;10.58;79.82;100500.63;2207206;78;21665;-73
2022/04/15 04:40:05;;;;;;;17.62;12.55;;;;;;;10.57;79.75;100502.45;2207126;79;21041;-72
2022/04/15 04:43:09;;;;;;;15.25;12.73;;;;;;;10.59;79.86;100499.16;2202299;78;20994;-73
2022/04/15 04:46:10;;;;;;;16.45;12.50;;;;;;;10.59;79.73;100497.84;2212301;79;21023;-73
2022/04/15 04:49:12;;;;;;;12.50;11.12;;;;;;;10.59;79.68;100496.51;2205073;79;21004;-74
2022/04/15 04:52:14;;;;;;;15.53;12.20;;;;;;;10.58;79.49;100493.50;2203876;79;21502;-73
2022/04/15 04:55:15;;;;;;;16.77;13.05;;;;;;;10.54;79.29;100499.62;2202547;78;21321;-75
2022/04/15 04:58:17;;;;;;;19.17;14.65;;;;;;;10.52;79.20;100497.61;2203052;78;21005;-76
2022/04/15 05:01:22;;;;;;;18.60;16.52;;;;;;;10.48;79.11;100506.89;2203319;79;20972;-75
2022/04/15 05:04:25;;;;;;;14.25;12.78;;;;;;;10.46;79.08;100509.36;2200914;78;21786;-74
2022/04/15 05:07:30;;;;;;;14.23;12.73;;;;;;;10.51;79.19;100521.16;2205755;79;21011;-74
2022/04/15 05:10:35;;;;;;;17.02;12.28;;;;;;;10.52;78.98;100524.64;2206512;78;21033;-73
2022/04/15 05:13:39;;;;;;;18.55;12.25;;;;;;;10.51;78.90;100527.80;2206099;78;21013;-75
2022/04/15 05:16:41;;;;;;;14.87;13.28;;;;;;;10.50;79.01;100533.24;2206550;79;21050;-75
2022/04/15 05:19:44;;;;;;;15.08;12.75;;;;;;;10.57;79.13;100541.44;2204113;78;21015;-76
2022/04/15 05:22:46;;;;;;;14.63;12.90;;;;;;;11.05;79.87;100539.52;2213705;78;21025;-76
2022/04/15 05:25:48;;;;;;;15.05;12.07;;;;;;;11.66;79.80;100534.41;2210269;79;21545;-76
2022/04/15 05:28:49;;;;;;;15.28;11.68;;;;;;;12.07;79.05;100546.92;2203745;79;21747;-76
2022/04/15 05:31:53;;;;;;;15.38;12.73;;;;;;;12.03;78.38;100547.77;2206877;79;21518;-76
2022/04/15 05:34:54;;;;;;;17.15;12.63;;;;;;;11.88;78.23;100533.44;2203160;79;21074;-76
2022/04/15 05:37:56;;;;;;;18.40;13.50;;;;;;;11.85;78.21;100548.37;2204370;78;21470;-75
2022/04/15 05:41:00;;;;;;;18.05;14.65;;;;;;;11.74;78.25;100544.70;2201591;79;21041;-76
2022/04/15 05:44:03;;;;;;;17.77;15.23;;;;;;;11.63;78.32;100544.03;2204744;79;21520;-76
2022/04/15 05:47:07;;;;;;;17.90;15.93;;;;;;;11.53;78.43;100534.03;2200599;79;21072;-76
2022/04/15 05:50:09;;;;;;;20.32;16.25;;;;;;;11.47;78.47;100526.72;2200747;79;21036;-76
2022/04/15 05:53:13;;;;;;;18.80;15.88;;;;;;;11.47;78.47;100526.72;2192976;79;21023;-76
2022/04/15 05:56:15;;;;;;;22.22;16.60;;;;;;;11.60;78.75;100548.82;2191537;79;21289;-75
2022/04/15 05:59:23;;;;;;;20.97;16.52;;;;;;;11.57;78.71;100552.66;2206825;79;21016;-75
2022/04/15 06:02:24;;;;;;;17.67;15.35;;;;;;;11.52;78.75;100552.81;2199484;79;21032;-75
2022/04/15 06:05:27;;;;;;;22.62;16.23;;;;;;;11.56;78.76;100558.13;2199166;78;21040;-75
2022/04/15 06:08:30;;;;;;;23.07;17.95;;;;;;;11.42;78.73;100543.13;2199869;79;21023;-75
2022/04/15 06:11:32;;;;;;;22.40;18.27;;;;;;;11.49;78.81;100561.94;2193938;79;21059;-75
2022/04/15 06:14:37;;;;;;;21.65;17.65;;;;;;;11.49;78.81;100561.94;2197152;79;20982;-75
2022/04/15 06:17:41;;;;;;;20.62;18.00;;;;;;;11.48;78.81;100564.24;2203377;79;20982;-75
2022/04/15 06:20:43;;;;;;;19.32;16.30;;;;;;;11.51;78.97;100559.93;2193123;79;21045;-75
2022/04/15 06:23:47;;;;;;;20.12;16.15;;;;;;;11.80;79.40;100557.36;2188850;79;21021;-75
2022/04/15 06:26:51;;;;;;;17.45;14.38;;;;;;;12.19;79.42;100552.27;2204969;79;21698;-75
2022/04/15 06:29:52;;;;;;;18.20;15.13;;;;;;;12.39;78.66;100555.41;2200776;79;21382;-76
2022/04/15 06:32:57;;;;;;;13.95;12.55;;;;;;;12.47;78.26;100557.20;2197395;79;21013;-75
2022/04/15 06:36:04;;;;;;;15.70;13.32;;;;;;;12.46;77.75;100573.69;2199583;79;21499;-75
2022/04/15 06:39:06;;;;;;;16.40;14.00;;;;;;;12.29;77.35;100574.70;2191091;79;21112;-75
2022/04/15 06:42:08;;;;;;;16.57;13.98;;;;;;;12.15;77.44;100575.36;2192062;79;20997;-75
2022/04/15 06:45:13;;;;;;;16.87;14.40;;;;;;;12.06;77.68;100575.86;2200587;79;21100;-76
2022/04/15 06:48:18;;;;;;;17.62;14.58;;;;;;;12.02;77.53;100570.52;2196530;79;21018;-75
2022/04/15 06:51:27;;;;;;;19.27;14.83;;;;;;;11.91;77.86;100562.39;2194817;79;21057;-75
2022/04/15 06:54:30;;;;;;;18.15;14.50;;;;;;;11.92;77.74;100577.34;2196847;78;21010;-75
2022/04/15 06:57:32;;;;;;;17.20;15.30;;;;;;;11.88;77.59;100574.66;2198021;79;21025;-76
2022/04/15 07:00:39;;;;;;;18.95;14.83;;;;;;;11.93;77.71;100580.83;2195039;79;21026;-75
2022/04/15 07:03:44;;;;;;;17.30;15.38;;;;;;;11.95;77.82;100580.17;2200180;79;21016;-75
2022/04/15 07:06:46;;;;;;;17.15;13.88;;;;;;;11.95;77.72;100573.52;2187894;79;20993;-75
2022/04/15 07:09:50;;;;;;;18.70;14.85;;;;;;;12.06;77.82;100570.54;2203513;79;21024;-75
2022/04/15 07:12:50;;;;;;;17.23;15.40;;;;;;;12.30;77.96;100573.21;2203964;79;21707;-75
2022/04/15 07:15:52;;;;;;;18.07;15.48;;;;;;;12.58;77.87;100565.35;2205374;79;21041;-75
2022/04/15 07:18:56;;;;;;;19.65;16.67;;;;;;;12.65;77.04;100560.52;2193546;79;21011;-75
2022/04/15 07:21:59;;;;;;;20.43;16.65;;;;;;;12.70;76.91;100572.01;2194026;79;21063;-75
2022/04/15 07:25:01;;;;;;;22.32;17.00;;;;;;;12.70;76.77;100574.16;2194566;79;21072;-75
2022/04/15 07:28:02;;;;;;;22.37;17.65;;;;;;;12.72;76.44;100575.31;2198533;79;20992;-75
2022/04/15 07:31:04;;;;;;;22.75;17.60;;;;;;;12.73;76.53;100579.14;2201017;79;21779;-75
2022/04/15 07:34:08;;;;;;;25.17;19.52;;;;;;;12.90;76.58;100576.45;2202108;79;21609;-73
2022/04/15 07:37:13;;;;;;;29.23;20.10;;;;;;;13.20;76.58;100577.49;2204353;79;21020;-75
2022/04/15 07:40:16;;;;;;;26.62;20.02;;;;;;;13.69;75.84;100569.30;2204185;79;21044;-75
2022/04/15 07:43:18;;;;;;;26.05;19.45;;;;;;;13.74;75.03;100570.09;2207828;78;20994;-75
2022/04/15 07:46:21;;;;;;;22.73;18.40;;;;;;;13.64;74.80;100572.48;2210131;79;21109;-75
2022/04/15 07:49:25;;;;;;;22.48;18.52;;;;;;;13.55;74.52;100570.05;2204156;78;21629;-75
2022/04/15 07:52:27;;;;;;;23.77;18.62;;;;;;;13.38;74.09;100574.64;2214332;78;21609;-75
2022/04/15 07:55:31;;;;;;;25.00;18.90;;;;;;;13.24;73.92;100572.17;2206999;79;21905;-76
2022/04/15 07:58:32;;;;;;;25.32;18.95;;;;;;;13.25;74.22;100575.15;2207593;79;21582;-75
2022/04/15 08:01:34;;;;;;;22.93;19.35;;;;;;;13.73;74.72;100579.11;2208158;78;21583;-76
2022/04/15 08:04:39;;;;;;;23.20;17.35;;;;;;;14.10;73.64;100575.67;2215380;78;21050;-76
2022/04/15 08:07:40;;;;;;;20.17;16.73;;;;;;;14.02;72.95;100579.73;2207209;78;21025;-73
2022/04/15 08:10:44;;;;;;;18.15;15.03;;;;;;;13.85;72.76;100588.36;2215055;79;21946;-76
2022/04/15 08:13:47;;;;;;;20.88;17.12;;;;;;;13.59;72.52;100590.84;2213937;79;21456;-77
2022/04/15 08:16:49;;;;;;;20.40;16.87;;;;;;;13.28;72.75;100589.48;2210156;79;21028;-75
2022/04/15 08:19:53;;;;;;;19.27;16.82;;;;;;;13.14;73.10;100588.84;2208408;78;21083;-74
2022/04/15 08:23:03;;;;;;;21.12;18.05;;;;;;;13.07;73.30;100592.70;2208343;78;20977;-74
2022/04/15 08:26:06;;;;;;;19.80;16.83;;;;;;;13.04;73.26;100592.23;2190650;79;21072;-74
2022/04/15 08:29:08;;;;;;;20.82;17.12;;;;;;;13.01;73.11;100588.90;2207178;79;21067;-73
2022/04/15 08:32:13;;;;;;;22.42;17.37;;;;;;;12.98;72.94;100574.59;2208323;79;21045;-74
2022/04/15 08:35:17;;;;;;;21.35;16.62;;;;;;;13.21;73.39;100577.84;2217378;79;21717;-74
2022/04/15 08:38:27;;;;;;;21.90;18.00;;;;;;;13.61;73.31;100576.84;2205330;78;21045;-74
2022/04/15 08:41:32;;;;;;;21.20;16.73;;;;;;;14.01;72.77;100583.42;2199975;79;21119;-74
2022/04/15 08:44:38;;;;;;;22.20;17.42;;;;;;;14.49;72.27;100594.71;2220841;79;20990;-74
2022/04/15 08:47:41;;;;;;;17.92;15.50;;;;;;;14.77;71.55;100586.45;2217862;79;20985;-73
2022/04/15 08:50:47;;;;;;;19.00;15.35;;;;;;;14.99;70.90;100592.73;2221303;79;21383;-74
2022/04/15 08:53:52;;;;;;;21.23;15.53;;;;;;;14.86;69.75;100588.53;2214412;77;21267;-74
2022/04/15 08:56:55;;;;;;;15.98;14.28;;;;;;;14.73;69.55;100583.84;2212807;79;21290;-74
2022/04/15 09:00:03;;;;;;;18.40;14.50;;;;;;;14.72;69.26;100575.48;2220580;78;21054;-74
2022/04/15 09:03:09;;;;;;;16.65;14.30;;;;;;;14.93;69.40;100577.45;2208452;79;21122;-74
2022/04/15 09:06:17;;;;;;;16.70;13.03;;;;;;;15.04;68.83;100572.16;2215585;79;21040;-74
2022/04/15 09:09:19;;;;;;;12.30;10.25;;;;;;;15.04;67.60;100578.84;2216909;77;21058;-74
2022/04/15 09:12:28;;;;;;;11.12;9.28;;;;;;;14.89;66.70;100581.48;2217837;79;21052;-74
2022/04/15 09:15:31;;;;;;;13.20;10.50;;;;;;;14.77;65.64;100581.11;2219366;79;21055;-74
2022/04/15 09:18:42;;;;;;;14.50;12.00;;;;;;;14.78;66.57;100587.28;2211528;79;21226;-74
2022/04/15 09:21:57;;;;;;;15.80;12.43;;;;;;;14.67;65.95;100595.26;2209149;79;21058;-74
2022/04/15 09:24:59;;;;;;;17.77;14.63;;;;;;;14.35;65.68;100590.99;2218811;79;21077;-74
2022/04/15 09:28:04;;;;;;;18.20;14.98;;;;;;;14.13;66.34;100599.33;2222479;79;20946;-73
2022/04/15 09:31:15;;;;;;;20.62;16.25;;;;;;;13.86;67.19;100606.86;2217921;79;21028;-74
2022/04/15 09:34:23;;;;;;;20.72;17.02;;;;;;;13.53;67.97;100604.88;2220757;79;20985;-74
2022/04/15 09:37:31;;;;;;;25.23;16.97;;;;;;;13.24;68.75;100606.81;2220307;79;21059;-74
2022/04/15 09:40:37;;;;;;;19.20;14.90;;;;;;;12.98;69.24;100607.89;2190023;79;21726;-75
2022/04/15 09:43:54;;;;;;;13.10;10.72;;;;;;;12.71;70.09;100602.44;2207212;79;21012;-73
2022/04/15 09:47:01;;;;;;;13.68;10.53;;;;;;;12.41;70.18;100609.78;2210188;79;21069;-74
2022/04/15 09:50:07;;;;;;;12.30;9.43;;;;;;;12.18;70.69;100616.27;2209765;78;21039;-74
2022/04/15 09:53:20;;;;;;;14.30;10.88;;;;;;;12.03;71.11;100614.25;2207238;79;20994;-74
2022/04/15 09:56:25;;;;;;;14.43;11.38;;;;;;;11.94;71.89;100606.41;2209257;78;21570;-74
2022/04/15 09:59:29;;;;;;;15.05;11.80;;;;;;;11.89;72.35;100609.58;2187526;79;21107;-74
2022/04/15 10:02:40;;;;;;;15.63;11.70;;;;;;;11.94;72.54;100615.25;2208499;79;21067;-74
2022/04/15 10:05:44;;;;;;;13.35;9.80;;;;;;;12.04;72.70;100607.10;2210247;78;21087;-74
2022/04/15 10:08:49;;;;;;;11.03;8.80;;;;;;;12.12;72.65;100611.11;2212465;77;21648;-74
2022/04/15 10:11:56;;;;;;;10.45;8.38;;;;;;;12.18;72.80;100618.92;2212816;79;21065;-74
2022/04/15 10:14:59;;;;;;;8.23;6.60;;;;;;;12.15;72.64;100621.92;2213637;79;21098;-74
2022/04/15 10:18:08;;;;;;;7.58;6.78;;;;;;;12.16;72.56;100618.25;2211029;79;21091;-74
2022/04/15 10:21:13;;;;;;;9.23;6.85;;;;;;;12.14;72.62;100617.09;2208475;79;21112;-74
2022/04/15 10:24:17;;;;;;;10.18;7.15;;;;;;;12.13;72.63;100615.92;2214609;79;21039;-74
2022/04/15 10:27:26;;;;;;;7.92;7.15;;;;;;;12.07;72.40;100622.22;2208919;78;21377;-74
2022/04/15 10:30:28;;;;;;;8.33;7.42;;;;;;;12.03;72.60;100619.58;2215450;79;21031;-74
2022/04/15 10:33:36;;;;;;;9.08;8.18;;;;;;;11.99;72.76;100619.55;2205789;78;21082;-74
2022/04/15 10:36:43;;;;;;;11.15;9.05;;;;;;;12.01;72.99;100616.23;2212624;79;21029;-74
2022/04/15 10:39:51;;;;;;;10.55;9.28;;;;;;;12.03;73.07;100612.92;2210684;78;21051;-74
2022/04/15 10:42:55;;;;;;;12.10;9.28;;;;;;;12.08;73.20;100614.60;2209106;79;21014;-74
2022/04/15 10:46:14;;;;;;;14.53;9.98;;;;;;;12.24;73.60;100610.27;2211727;79;21015;-74
2022/04/15 10:49:27;;;;;;;13.40;9.05;;;;;;;12.47;73.71;100615.29;2212652;79;21054;-74
2022/04/15 10:52:30;;;;;;;11.12;9.05;;;;;;;12.52;73.29;100616.92;2209670;78;21047;-74
2022/04/15 10:55:42;;;;;;;11.70;9.23;;;;;;;12.56;73.36;100614.28;2214282;79;21059;-75
2022/04/15 11:02:18;;;;;;;15.93;10.23;;;;;;;12.51;73.19;100613.12;2205894;78;21059;-74
2022/04/15 11:05:53;;;;;;;15.83;11.85;;;;;;;12.52;73.16;100608.94;2208381;79;21051;-74
2022/04/15 11:08:57;;;;;;;12.85;11.03;;;;;;;12.39;73.12;100616.62;2211861;78;21063;-74
2022/04/15 11:12:03;;;;;;;16.93;14.03;;;;;;;12.31;73.88;100611.29;2206959;79;21043;-74
2022/04/15 11:15:05;;;;;;;17.10;13.50;;;;;;;12.27;73.92;100618.75;2210247;79;20999;-73
2022/04/15 11:18:16;;;;;;;16.67;12.93;;;;;;;12.19;73.90;100620.58;2215432;79;21054;-73
2022/04/15 11:21:32;;;;;;;15.75;13.65;;;;;;;12.13;73.98;100614.08;2213553;79;20921;-73
2022/04/15 11:24:38;;;;;;;17.27;14.07;;;;;;;12.17;74.23;100621.27;2206032;78;21558;-74
2022/04/15 11:27:41;;;;;;;14.95;13.03;;;;;;;12.21;74.52;100621.25;2209724;79;21777;-74
2022/04/15 11:30:46;;;;;;;17.27;13.80;;;;;;;12.30;74.61;100621.11;2214110;79;21045;-74
2022/04/15 11:33:51;;;;;;;17.95;14.15;;;;;;;12.50;74.75;100620.75;2212598;79;20977;-73
2022/04/15 11:37:04;;;;;;;17.67;14.65;;;;;;;12.78;74.99;100612.76;2211674;78;21054;-74
2022/04/15 11:40:08;;;;;;;16.67;11.38;;;;;;;12.89;74.51;100612.88;2204833;78;21040;-74
2022/04/15 11:43:11;;;;;;;13.43;8.65;;;;;;;12.98;73.34;100610.55;2200372;79;21019;-73
2022/04/15 11:46:12;;;;;;;9.90;6.17;;;;;;;12.88;72.92;100609.90;2208769;79;21535;-74
2022/04/15 11:49:31;;;;;;;6.37;5.22;;;;;;;12.94;71.04;100603.06;2193577;79;21236;-73
2022/04/15 11:52:34;;;;;;;6.87;5.37;;;;;;;12.99;70.28;100604.72;2207950;79;21263;-74
2022/04/15 11:55:51;;;;;;;7.78;4.75;;;;;;;12.95;69.73;100605.57;2207887;79;21285;-74
2022/04/15 11:58:57;;;;;;;7.05;5.42;;;;;;;12.93;69.35;100610.73;2206086;77;20981;-72
2022/04/15 12:02:01;;;;;;;7.97;4.50;;;;;;;13.00;69.57;100611.19;2209174;79;21092;-72
2022/04/15 12:05:05;;;;;;;6.40;4.45;;;;;;;13.07;69.07;100609.20;2204676;79;21070;-72
2022/04/15 12:08:11;;;;;;;5.12;3.67;;;;;;;13.08;68.23;100602.35;2203908;79;21040;-72
2022/04/15 12:11:14;;;;;;;5.10;3.98;;;;;;;13.26;68.45;100606.14;2208224;78;21520;-71
2022/04/15 12:14:17;;;;;;;8.08;4.05;;;;;;;13.33;67.62;100612.46;2216163;78;21003;-70
2022/04/15 12:17:24;;;;;;;5.83;3.72;;;;;;;13.28;67.28;100608.14;2208960;79;21034;-73
2022/04/15 12:20:27;;;;;;;4.47;3.65;;;;;;;13.20;67.21;100609.47;2203290;79;21038;-76
2022/04/15 12:23:33;;;;;;;4.58;3.98;;;;;;;13.00;66.84;100615.19;2212708;78;21870;-73
2022/04/15 12:26:48;;;;;;;4.67;4.15;;;;;;;12.83;66.97;100613.56;2209783;79;21008;-72
2022/04/15 12:29:54;;;;;;;4.60;4.20;;;;;;;12.65;65.82;100612.44;2213489;79;21310;-72
2022/04/15 12:33:12;;;;;;;6.25;4.95;;;;;;;12.50;65.68;100616.76;2206829;78;21008;-73
2022/04/15 12:36:14;;;;;;;6.47;5.28;;;;;;;12.42;65.87;100610.96;2214086;79;21043;-72
2022/04/15 12:39:21;;;;;;;7.70;6.00;;;;;;;12.39;65.71;100617.95;2210515;79;20992;-73
2022/04/15 12:42:31;;;;;;;7.47;6.58;;;;;;;12.33;65.92;100615.45;2195758;79;21077;-73
2022/04/15 12:45:32;;;;;;;7.12;6.42;;;;;;;12.28;65.76;100619.61;2197774;79;21013;-73
2022/04/15 12:48:39;;;;;;;7.55;6.75;;;;;;;12.22;65.21;100629.55;2203199;79;21030;-72
2022/04/15 12:51:40;;;;;;;9.35;7.42;;;;;;;12.15;65.45;100620.59;2198707;79;21091;-72
2022/04/15 12:55:00;;;;;;;9.15;8.10;;;;;;;12.07;65.43;100630.70;2205539;79;21033;-72
2022/04/15 12:58:05;;;;;;;9.88;8.00;;;;;;;12.00;65.31;100630.54;2170390;79;21817;-72
2022/04/15 13:01:08;;;;;;;8.98;8.08;;;;;;;11.92;65.30;100642.99;2197280;79;21028;-72
2022/04/15 13:04:16;;;;;;;10.23;8.48;;;;;;;11.87;65.97;100644.30;2201628;79;21072;-72
2022/04/15 13:07:18;;;;;;;17.37;12.18;;;;;;;11.94;66.57;100643.64;2197409;79;21317;-72
2022/04/15 13:10:22;;;;;;;17.42;12.23;;;;;;;11.84;66.61;100635.78;2203517;79;21053;-72
2022/04/15 13:13:25;;;;;;;16.20;11.90;;;;;;;11.36;67.47;100647.41;2199277;79;21095;-72
2022/04/15 13:16:34;;;;;;;21.33;13.58;;;;;;;11.02;67.68;100632.78;2202133;79;21128;-72
2022/04/15 13:19:36;;;;;;;20.25;13.00;;;;;;;11.02;67.68;100632.78;2202897;79;21096;-72
2022/04/15 13:22:40;;;;;;;18.92;13.25;;;;;;;10.98;68.04;100653.52;2199001;79;21029;-72
2022/04/15 13:25:44;;;;;;;12.15;9.95;;;;;;;10.90;68.35;100655.29;2197275;79;21457;-72
2022/04/15 13:28:51;;;;;;;12.55;9.08;;;;;;;10.81;68.57;100649.56;2198104;79;21508;-72
2022/04/15 13:31:52;;;;;;;15.25;8.78;;;;;;;10.71;68.40;100657.13;2194603;79;21077;-72
2022/04/15 13:34:54;;;;;;;12.30;9.33;;;;;;;10.62;68.61;100657.23;2202357;79;21745;-71
2022/04/15 13:37:57;;;;;;;14.30;10.38;;;;;;;10.54;69.09;100668.61;2203896;79;21254;-72
2022/04/15 13:40:59;;;;;;;18.37;10.95;;;;;;;10.43;69.12;100665.70;2198929;79;21092;-71
2022/04/15 13:44:06;;;;;;;15.43;10.38;;;;;;;10.37;69.66;100661.00;2173116;80;21093;-70
2022/04/15 13:47:16;;;;;;;13.65;10.60;;;;;;;10.28;69.58;100664.08;2178390;80;20977;-71
2022/04/15 13:50:15;;;;;;;12.95;9.18;;;;;;;10.23;69.93;100653.05;2174993;80;21052;-67
2022/04/15 13:56:45;;;;;;;8.83;7.17;;;;;;;10.25;70.48;100656.39;2175352;80;21020;-70
2022/04/15 13:59:46;;;;;;;7.50;6.55;;;;;;;10.30;70.67;100658.14;2176481;80;21022;-70
2022/04/15 14:02:48;;;;;;;8.23;7.00;;;;;;;10.39;70.49;100658.18;2174786;80;21091;-68
2022/04/15 14:05:53;;;;;;;8.93;6.35;;;;;;;10.49;70.23;100662.92;2173797;80;21662;-72
2022/04/15 14:08:58;;;;;;;7.03;6.22;;;;;;;10.62;70.22;100667.85;2176751;80;21072;-71